sensor_id;sensor_type;location;lat;lon;timestamp;P1;durP1;ratioP1;P2;durP2;ratioP2
17714;SDS011;8977;50.902;4.314;2022-10-30T00:00:30;10.80;;;4.40;;
17714;SDS011;8977;50.902;4.314;2022-10-30T00:02:58;10.60;;;5.22;;
17714;SDS011;8977;50.902;4.314;2022-10-30T00:05:25;11.98;;;4.30;;
17714;SDS011;8977;50.902;4.314;2022-10-30T00:07:55;7.50;;;4.50;;
17714;SDS011;8977;50.902;4.314;2022-10-30T00:10:22;6.47;;;4.28;;
17714;SDS011;8977;50.902;4.314;2022-10-30T00:12:49;7.35;;;4.20;;
17714;SDS011;8977;50.902;4.314;2022-10-30T00:15:16;11.48;;;4.85;;
17714;SDS011;8977;50.902;4.314;2022-10-30T00:17:43;10.20;;;4.32;;
17714;SDS011;8977;50.902;4.314;2022-10-30T00:20:10;9.73;;;4.20;;
17714;SDS011;8977;50.902;4.314;2022-10-30T00:22:37;14.00;;;4.95;;
17714;SDS011;8977;50.902;4.314;2022-10-30T00:25:05;11.65;;;4.65;;
17714;SDS011;8977;50.902;4.314;2022-10-30T00:27:33;9.32;;;5.13;;
17714;SDS011;8977;50.902;4.314;2022-10-30T00:29:59;10.15;;;4.60;;
17714;SDS011;8977;50.902;4.314;2022-10-30T00:32:26;7.65;;;4.55;;
17714;SDS011;8977;50.902;4.314;2022-10-30T00:34:53;13.77;;;4.93;;
17714;SDS011;8977;50.902;4.314;2022-10-30T00:37:20;12.45;;;4.63;;
17714;SDS011;8977;50.902;4.314;2022-10-30T00:39:47;10.82;;;4.70;;
17714;SDS011;8977;50.902;4.314;2022-10-30T00:42:15;10.38;;;4.53;;
17714;SDS011;8977;50.902;4.314;2022-10-30T00:44:44;12.65;;;4.78;;
17714;SDS011;8977;50.902;4.314;2022-10-30T00:47:15;12.27;;;4.60;;
17714;SDS011;8977;50.902;4.314;2022-10-30T00:49:49;10.65;;;4.88;;
17714;SDS011;8977;50.902;4.314;2022-10-30T00:52:19;13.60;;;5.32;;
17714;SDS011;8977;50.902;4.314;2022-10-30T00:54:48;12.30;;;4.80;;
17714;SDS011;8977;50.902;4.314;2022-10-30T00:57:18;8.52;;;4.80;;
17714;SDS011;8977;50.902;4.314;2022-10-30T00:59:45;12.57;;;5.00;;
17714;SDS011;8977;50.902;4.314;2022-10-30T01:02:13;13.35;;;5.15;;
17714;SDS011;8977;50.902;4.314;2022-10-30T01:04:41;11.73;;;4.95;;
17714;SDS011;8977;50.902;4.314;2022-10-30T01:07:11;10.43;;;4.65;;
17714;SDS011;8977;50.902;4.314;2022-10-30T01:09:41;9.73;;;4.70;;
17714;SDS011;8977;50.902;4.314;2022-10-30T01:12:08;12.40;;;5.13;;
17714;SDS011;8977;50.902;4.314;2022-10-30T01:14:37;12.50;;;5.55;;
17714;SDS011;8977;50.902;4.314;2022-10-30T01:17:16;12.02;;;5.15;;
17714;SDS011;8977;50.902;4.314;2022-10-30T01:20:13;12.88;;;4.82;;
17714;SDS011;8977;50.902;4.314;2022-10-30T01:22:54;10.57;;;4.55;;
17714;SDS011;8977;50.902;4.314;2022-10-30T01:25:35;9.93;;;5.00;;
17714;SDS011;8977;50.902;4.314;2022-10-30T01:28:15;10.45;;;5.35;;
17714;SDS011;8977;50.902;4.314;2022-10-30T01:30:59;13.30;;;5.82;;
17714;SDS011;8977;50.902;4.314;2022-10-30T01:33:35;12.52;;;5.25;;
17714;SDS011;8977;50.902;4.314;2022-10-30T01:36:12;7.38;;;4.47;;
17714;SDS011;8977;50.902;4.314;2022-10-30T01:38:46;12.25;;;4.40;;
17714;SDS011;8977;50.902;4.314;2022-10-30T01:41:17;10.52;;;4.88;;
17714;SDS011;8977;50.902;4.314;2022-10-30T01:43:44;9.30;;;4.78;;
17714;SDS011;8977;50.902;4.314;2022-10-30T01:46:20;10.13;;;4.68;;
17714;SDS011;8977;50.902;4.314;2022-10-30T01:52:11;9.45;;;4.97;;
17714;SDS011;8977;50.902;4.314;2022-10-30T01:54:45;14.35;;;5.95;;
17714;SDS011;8977;50.902;4.314;2022-10-30T01:57:20;10.48;;;5.00;;
17714;SDS011;8977;50.902;4.314;2022-10-30T01:59:58;12.93;;;5.18;;
17714;SDS011;8977;50.902;4.314;2022-10-30T02:02:30;9.82;;;4.90;;
17714;SDS011;8977;50.902;4.314;2022-10-30T02:04:57;12.70;;;5.63;;
17714;SDS011;8977;50.902;4.314;2022-10-30T02:07:24;17.17;;;4.97;;
17714;SDS011;8977;50.902;4.314;2022-10-30T02:09:51;10.95;;;5.07;;
17714;SDS011;8977;50.902;4.314;2022-10-30T02:12:19;10.68;;;4.65;;
17714;SDS011;8977;50.902;4.314;2022-10-30T02:14:48;14.27;;;4.85;;
17714;SDS011;8977;50.902;4.314;2022-10-30T02:17:17;14.25;;;5.00;;
17714;SDS011;8977;50.902;4.314;2022-10-30T02:19:47;11.18;;;5.10;;
17714;SDS011;8977;50.902;4.314;2022-10-30T02:22:15;12.18;;;6.30;;
17714;SDS011;8977;50.902;4.314;2022-10-30T02:24:43;13.23;;;5.63;;
17714;SDS011;8977;50.902;4.314;2022-10-30T02:27:10;13.95;;;5.55;;
17714;SDS011;8977;50.902;4.314;2022-10-30T02:29:37;10.85;;;4.45;;
17714;SDS011;8977;50.902;4.314;2022-10-30T02:32:04;11.43;;;4.65;;
17714;SDS011;8977;50.902;4.314;2022-10-30T02:34:30;10.88;;;5.20;;
17714;SDS011;8977;50.902;4.314;2022-10-30T02:36:57;14.07;;;5.32;;
17714;SDS011;8977;50.902;4.314;2022-10-30T02:39:25;9.57;;;5.28;;
17714;SDS011;8977;50.902;4.314;2022-10-30T02:41:52;10.73;;;4.55;;
17714;SDS011;8977;50.902;4.314;2022-10-30T02:44:19;9.30;;;5.30;;
17714;SDS011;8977;50.902;4.314;2022-10-30T02:46:46;16.38;;;5.45;;
17714;SDS011;8977;50.902;4.314;2022-10-30T02:49:12;10.57;;;4.78;;
17714;SDS011;8977;50.902;4.314;2022-10-30T02:51:39;12.43;;;4.90;;
17714;SDS011;8977;50.902;4.314;2022-10-30T02:54:06;10.85;;;5.10;;
17714;SDS011;8977;50.902;4.314;2022-10-30T02:56:34;11.32;;;5.00;;
17714;SDS011;8977;50.902;4.314;2022-10-30T02:59:01;10.98;;;5.00;;
17714;SDS011;8977;50.902;4.314;2022-10-30T03:01:29;9.73;;;4.97;;
17714;SDS011;8977;50.902;4.314;2022-10-30T03:03:56;12.68;;;4.90;;
17714;SDS011;8977;50.902;4.314;2022-10-30T03:06:22;14.75;;;6.43;;
17714;SDS011;8977;50.902;4.314;2022-10-30T03:08:49;9.68;;;4.72;;
17714;SDS011;8977;50.902;4.314;2022-10-30T03:11:17;9.02;;;4.68;;
17714;SDS011;8977;50.902;4.314;2022-10-30T03:13:46;12.15;;;4.90;;
17714;SDS011;8977;50.902;4.314;2022-10-30T03:16:14;13.85;;;5.35;;
17714;SDS011;8977;50.902;4.314;2022-10-30T03:18:43;11.82;;;5.38;;
17714;SDS011;8977;50.902;4.314;2022-10-30T03:21:11;11.98;;;4.72;;
17714;SDS011;8977;50.902;4.314;2022-10-30T03:23:39;9.00;;;5.13;;
17714;SDS011;8977;50.902;4.314;2022-10-30T03:26:06;13.88;;;5.47;;
17714;SDS011;8977;50.902;4.314;2022-10-30T03:28:33;9.00;;;4.90;;
17714;SDS011;8977;50.902;4.314;2022-10-30T03:31:03;11.82;;;4.78;;
17714;SDS011;8977;50.902;4.314;2022-10-30T03:33:31;13.55;;;5.18;;
17714;SDS011;8977;50.902;4.314;2022-10-30T03:35:59;8.85;;;5.10;;
17714;SDS011;8977;50.902;4.314;2022-10-30T03:38:26;12.15;;;5.22;;
17714;SDS011;8977;50.902;4.314;2022-10-30T03:40:53;10.27;;;5.20;;
17714;SDS011;8977;50.902;4.314;2022-10-30T03:43:20;12.38;;;5.00;;
17714;SDS011;8977;50.902;4.314;2022-10-30T03:45:47;11.45;;;4.97;;
17714;SDS011;8977;50.902;4.314;2022-10-30T03:48:17;10.20;;;5.60;;
17714;SDS011;8977;50.902;4.314;2022-10-30T03:50:45;11.38;;;5.38;;
17714;SDS011;8977;50.902;4.314;2022-10-30T03:53:12;14.93;;;5.28;;
17714;SDS011;8977;50.902;4.314;2022-10-30T03:55:39;11.13;;;4.97;;
17714;SDS011;8977;50.902;4.314;2022-10-30T03:58:06;13.07;;;5.63;;
17714;SDS011;8977;50.902;4.314;2022-10-30T04:00:33;10.13;;;5.15;;
17714;SDS011;8977;50.902;4.314;2022-10-30T04:03:01;10.88;;;5.50;;
17714;SDS011;8977;50.902;4.314;2022-10-30T04:05:32;8.35;;;5.00;;
17714;SDS011;8977;50.902;4.314;2022-10-30T04:08:00;11.68;;;5.38;;
17714;SDS011;8977;50.902;4.314;2022-10-30T04:10:28;11.18;;;5.20;;
17714;SDS011;8977;50.902;4.314;2022-10-30T04:12:58;13.20;;;5.80;;
17714;SDS011;8977;50.902;4.314;2022-10-30T04:15:25;11.80;;;5.35;;
17714;SDS011;8977;50.902;4.314;2022-10-30T04:17:52;10.40;;;5.22;;
17714;SDS011;8977;50.902;4.314;2022-10-30T04:20:19;9.43;;;5.25;;
17714;SDS011;8977;50.902;4.314;2022-10-30T04:22:53;10.50;;;5.40;;
17714;SDS011;8977;50.902;4.314;2022-10-30T04:25:21;12.27;;;5.45;;
17714;SDS011;8977;50.902;4.314;2022-10-30T04:27:48;12.20;;;5.68;;
17714;SDS011;8977;50.902;4.314;2022-10-30T04:30:16;16.08;;;5.68;;
17714;SDS011;8977;50.902;4.314;2022-10-30T04:32:45;12.00;;;5.68;;
17714;SDS011;8977;50.902;4.314;2022-10-30T04:35:12;13.15;;;5.43;;
17714;SDS011;8977;50.902;4.314;2022-10-30T04:37:40;13.13;;;5.57;;
17714;SDS011;8977;50.902;4.314;2022-10-30T04:40:09;12.65;;;5.45;;
17714;SDS011;8977;50.902;4.314;2022-10-30T04:42:36;11.55;;;5.55;;
17714;SDS011;8977;50.902;4.314;2022-10-30T04:45:06;13.02;;;5.10;;
17714;SDS011;8977;50.902;4.314;2022-10-30T04:47:33;12.50;;;5.40;;
17714;SDS011;8977;50.902;4.314;2022-10-30T04:50:00;10.75;;;5.20;;
17714;SDS011;8977;50.902;4.314;2022-10-30T04:52:27;10.82;;;5.30;;
17714;SDS011;8977;50.902;4.314;2022-10-30T04:54:54;12.35;;;5.50;;
17714;SDS011;8977;50.902;4.314;2022-10-30T04:57:22;9.68;;;5.07;;
17714;SDS011;8977;50.902;4.314;2022-10-30T04:59:49;13.60;;;5.78;;
17714;SDS011;8977;50.902;4.314;2022-10-30T05:02:15;10.48;;;5.65;;
17714;SDS011;8977;50.902;4.314;2022-10-30T05:04:43;11.25;;;5.40;;
17714;SDS011;8977;50.902;4.314;2022-10-30T05:07:10;11.30;;;5.28;;
17714;SDS011;8977;50.902;4.314;2022-10-30T05:09:37;12.32;;;6.00;;
17714;SDS011;8977;50.902;4.314;2022-10-30T05:12:04;11.27;;;5.80;;
17714;SDS011;8977;50.902;4.314;2022-10-30T05:14:33;14.77;;;6.45;;
17714;SDS011;8977;50.902;4.314;2022-10-30T05:17:00;12.05;;;5.38;;
17714;SDS011;8977;50.902;4.314;2022-10-30T05:19:27;11.15;;;5.47;;
17714;SDS011;8977;50.902;4.314;2022-10-30T05:21:54;17.33;;;5.68;;
17714;SDS011;8977;50.902;4.314;2022-10-30T05:24:20;12.13;;;5.40;;
17714;SDS011;8977;50.902;4.314;2022-10-30T05:26:47;9.15;;;5.32;;
17714;SDS011;8977;50.902;4.314;2022-10-30T05:29:14;12.77;;;5.13;;
17714;SDS011;8977;50.902;4.314;2022-10-30T05:31:42;11.88;;;4.95;;
17714;SDS011;8977;50.902;4.314;2022-10-30T05:34:09;12.98;;;5.43;;
17714;SDS011;8977;50.902;4.314;2022-10-30T05:36:36;7.97;;;5.03;;
17714;SDS011;8977;50.902;4.314;2022-10-30T05:39:03;9.60;;;4.43;;
17714;SDS011;8977;50.902;4.314;2022-10-30T05:41:30;10.55;;;5.30;;
17714;SDS011;8977;50.902;4.314;2022-10-30T05:43:56;11.05;;;5.30;;
17714;SDS011;8977;50.902;4.314;2022-10-30T05:46:23;16.02;;;5.18;;
17714;SDS011;8977;50.902;4.314;2022-10-30T05:48:51;11.43;;;5.38;;
17714;SDS011;8977;50.902;4.314;2022-10-30T05:51:18;12.45;;;5.43;;
17714;SDS011;8977;50.902;4.314;2022-10-30T05:53:46;15.20;;;5.78;;
17714;SDS011;8977;50.902;4.314;2022-10-30T05:56:13;7.30;;;5.18;;
17714;SDS011;8977;50.902;4.314;2022-10-30T05:58:40;9.85;;;5.10;;
17714;SDS011;8977;50.902;4.314;2022-10-30T06:01:07;9.90;;;4.82;;
17714;SDS011;8977;50.902;4.314;2022-10-30T06:03:34;13.50;;;5.75;;
17714;SDS011;8977;50.902;4.314;2022-10-30T06:06:02;10.38;;;5.25;;
17714;SDS011;8977;50.902;4.314;2022-10-30T06:08:29;12.98;;;6.07;;
17714;SDS011;8977;50.902;4.314;2022-10-30T06:10:56;11.23;;;5.57;;
17714;SDS011;8977;50.902;4.314;2022-10-30T06:13:23;13.50;;;5.55;;
17714;SDS011;8977;50.902;4.314;2022-10-30T06:15:50;10.15;;;4.97;;
17714;SDS011;8977;50.902;4.314;2022-10-30T06:18:19;12.82;;;5.57;;
17714;SDS011;8977;50.902;4.314;2022-10-30T06:20:45;9.35;;;5.20;;
17714;SDS011;8977;50.902;4.314;2022-10-30T06:23:14;8.30;;;5.00;;
17714;SDS011;8977;50.902;4.314;2022-10-30T06:25:40;11.07;;;5.63;;
17714;SDS011;8977;50.902;4.314;2022-10-30T06:28:08;12.07;;;4.82;;
17714;SDS011;8977;50.902;4.314;2022-10-30T06:30:35;12.82;;;6.13;;
17714;SDS011;8977;50.902;4.314;2022-10-30T06:33:02;9.95;;;5.43;;
17714;SDS011;8977;50.902;4.314;2022-10-30T06:35:30;9.23;;;5.13;;
17714;SDS011;8977;50.902;4.314;2022-10-30T06:37:57;11.32;;;5.63;;
17714;SDS011;8977;50.902;4.314;2022-10-30T06:40:26;14.32;;;6.07;;
17714;SDS011;8977;50.902;4.314;2022-10-30T06:42:54;12.52;;;5.88;;
17714;SDS011;8977;50.902;4.314;2022-10-30T06:45:21;13.25;;;6.50;;
17714;SDS011;8977;50.902;4.314;2022-10-30T06:47:49;15.15;;;6.55;;
17714;SDS011;8977;50.902;4.314;2022-10-30T06:50:16;10.63;;;6.07;;
17714;SDS011;8977;50.902;4.314;2022-10-30T06:52:44;13.45;;;7.20;;
17714;SDS011;8977;50.902;4.314;2022-10-30T06:55:12;13.10;;;6.85;;
17714;SDS011;8977;50.902;4.314;2022-10-30T06:57:46;17.35;;;8.18;;
17714;SDS011;8977;50.902;4.314;2022-10-30T07:00:19;19.00;;;7.57;;
17714;SDS011;8977;50.902;4.314;2022-10-30T07:02:53;14.50;;;7.70;;
17714;SDS011;8977;50.902;4.314;2022-10-30T07:05:21;17.85;;;7.75;;
17714;SDS011;8977;50.902;4.314;2022-10-30T07:07:47;15.60;;;7.32;;
17714;SDS011;8977;50.902;4.314;2022-10-30T07:10:14;17.20;;;7.82;;
17714;SDS011;8977;50.902;4.314;2022-10-30T07:12:50;16.30;;;7.63;;
17714;SDS011;8977;50.902;4.314;2022-10-30T07:15:18;13.70;;;8.07;;
17714;SDS011;8977;50.902;4.314;2022-10-30T07:17:50;14.77;;;7.00;;
17714;SDS011;8977;50.902;4.314;2022-10-30T07:20:18;19.08;;;8.70;;
17714;SDS011;8977;50.902;4.314;2022-10-30T07:22:45;17.77;;;7.68;;
17714;SDS011;8977;50.902;4.314;2022-10-30T07:25:12;16.27;;;7.47;;
17714;SDS011;8977;50.902;4.314;2022-10-30T07:27:42;15.43;;;8.05;;
17714;SDS011;8977;50.902;4.314;2022-10-30T07:30:12;17.40;;;8.35;;
17714;SDS011;8977;50.902;4.314;2022-10-30T07:32:40;19.45;;;7.95;;
17714;SDS011;8977;50.902;4.314;2022-10-30T07:35:07;15.35;;;7.75;;
17714;SDS011;8977;50.902;4.314;2022-10-30T07:37:36;15.68;;;8.10;;
17714;SDS011;8977;50.902;4.314;2022-10-30T07:40:03;19.25;;;8.25;;
17714;SDS011;8977;50.902;4.314;2022-10-30T07:42:30;16.02;;;8.35;;
17714;SDS011;8977;50.902;4.314;2022-10-30T07:44:57;16.15;;;8.35;;
17714;SDS011;8977;50.902;4.314;2022-10-30T07:47:26;18.05;;;8.35;;
17714;SDS011;8977;50.902;4.314;2022-10-30T07:49:52;17.13;;;7.88;;
17714;SDS011;8977;50.902;4.314;2022-10-30T07:52:19;16.92;;;8.25;;
17714;SDS011;8977;50.902;4.314;2022-10-30T07:54:46;16.15;;;8.30;;
17714;SDS011;8977;50.902;4.314;2022-10-30T07:57:13;19.20;;;8.40;;
17714;SDS011;8977;50.902;4.314;2022-10-30T07:59:39;15.38;;;8.23;;
17714;SDS011;8977;50.902;4.314;2022-10-30T08:02:07;14.07;;;7.57;;
17714;SDS011;8977;50.902;4.314;2022-10-30T08:04:36;16.40;;;8.15;;
17714;SDS011;8977;50.902;4.314;2022-10-30T08:07:03;16.25;;;8.13;;
17714;SDS011;8977;50.902;4.314;2022-10-30T08:09:30;18.40;;;8.40;;
17714;SDS011;8977;50.902;4.314;2022-10-30T08:11:56;19.38;;;8.50;;
17714;SDS011;8977;50.902;4.314;2022-10-30T08:14:23;14.13;;;7.60;;
17714;SDS011;8977;50.902;4.314;2022-10-30T08:16:50;16.02;;;7.22;;
17714;SDS011;8977;50.902;4.314;2022-10-30T08:19:17;17.02;;;8.10;;
17714;SDS011;8977;50.902;4.314;2022-10-30T08:21:45;16.20;;;7.65;;
17714;SDS011;8977;50.902;4.314;2022-10-30T08:24:12;21.25;;;8.30;;
17714;SDS011;8977;50.902;4.314;2022-10-30T08:26:39;15.82;;;7.53;;
17714;SDS011;8977;50.902;4.314;2022-10-30T08:29:06;14.73;;;7.30;;
17714;SDS011;8977;50.902;4.314;2022-10-30T08:31:32;15.48;;;7.70;;
17714;SDS011;8977;50.902;4.314;2022-10-30T08:33:59;17.98;;;7.20;;
17714;SDS011;8977;50.902;4.314;2022-10-30T08:36:26;15.52;;;7.50;;
17714;SDS011;8977;50.902;4.314;2022-10-30T08:38:54;16.00;;;7.72;;
17714;SDS011;8977;50.902;4.314;2022-10-30T08:41:22;16.52;;;8.10;;
17714;SDS011;8977;50.902;4.314;2022-10-30T08:43:49;15.18;;;7.50;;
17714;SDS011;8977;50.902;4.314;2022-10-30T08:46:16;14.73;;;8.60;;
17714;SDS011;8977;50.902;4.314;2022-10-30T08:48:42;15.20;;;7.68;;
17714;SDS011;8977;50.902;4.314;2022-10-30T08:51:09;15.32;;;7.22;;
17714;SDS011;8977;50.902;4.314;2022-10-30T08:53:36;16.05;;;8.13;;
17714;SDS011;8977;50.902;4.314;2022-10-30T08:56:04;21.25;;;8.82;;
17714;SDS011;8977;50.902;4.314;2022-10-30T08:58:31;20.65;;;8.70;;
17714;SDS011;8977;50.902;4.314;2022-10-30T09:00:58;17.98;;;8.25;;
17714;SDS011;8977;50.902;4.314;2022-10-30T09:03:25;19.27;;;7.95;;
17714;SDS011;8977;50.902;4.314;2022-10-30T09:05:52;17.88;;;8.48;;
17714;SDS011;8977;50.902;4.314;2022-10-30T09:08:19;19.70;;;8.52;;
17714;SDS011;8977;50.902;4.314;2022-10-30T09:10:45;17.55;;;8.23;;
17714;SDS011;8977;50.902;4.314;2022-10-30T09:13:14;16.98;;;7.80;;
17714;SDS011;8977;50.902;4.314;2022-10-30T09:15:40;16.08;;;7.93;;
17714;SDS011;8977;50.902;4.314;2022-10-30T09:18:07;15.05;;;7.93;;
17714;SDS011;8977;50.902;4.314;2022-10-30T09:20:34;15.43;;;8.32;;
17714;SDS011;8977;50.902;4.314;2022-10-30T09:23:02;13.95;;;7.80;;
17714;SDS011;8977;50.902;4.314;2022-10-30T09:25:29;15.95;;;7.88;;
17714;SDS011;8977;50.902;4.314;2022-10-30T09:27:55;18.98;;;7.80;;
17714;SDS011;8977;50.902;4.314;2022-10-30T09:30:24;15.70;;;7.05;;
17714;SDS011;8977;50.902;4.314;2022-10-30T09:32:54;16.40;;;7.90;;
17714;SDS011;8977;50.902;4.314;2022-10-30T09:35:21;16.45;;;7.28;;
17714;SDS011;8977;50.902;4.314;2022-10-30T09:37:48;14.98;;;7.18;;
17714;SDS011;8977;50.902;4.314;2022-10-30T09:40:17;12.65;;;7.53;;
17714;SDS011;8977;50.902;4.314;2022-10-30T09:42:47;15.23;;;7.05;;
17714;SDS011;8977;50.902;4.314;2022-10-30T09:45:19;14.52;;;6.82;;
17714;SDS011;8977;50.902;4.314;2022-10-30T09:48:17;19.55;;;7.85;;
17714;SDS011;8977;50.902;4.314;2022-10-30T09:50:59;15.32;;;7.35;;
17714;SDS011;8977;50.902;4.314;2022-10-30T09:53:36;15.77;;;7.63;;
17714;SDS011;8977;50.902;4.314;2022-10-30T09:56:14;16.67;;;7.72;;
17714;SDS011;8977;50.902;4.314;2022-10-30T09:58:51;15.13;;;7.57;;
17714;SDS011;8977;50.902;4.314;2022-10-30T10:01:29;13.20;;;7.45;;
17714;SDS011;8977;50.902;4.314;2022-10-30T10:04:06;15.55;;;8.10;;
17714;SDS011;8977;50.902;4.314;2022-10-30T10:06:43;13.73;;;6.60;;
17714;SDS011;8977;50.902;4.314;2022-10-30T10:09:16;14.63;;;6.80;;
17714;SDS011;8977;50.902;4.314;2022-10-30T10:11:46;12.35;;;6.65;;
17714;SDS011;8977;50.902;4.314;2022-10-30T10:14:15;15.45;;;6.47;;
17714;SDS011;8977;50.902;4.314;2022-10-30T10:16:49;15.23;;;6.70;;
17714;SDS011;8977;50.902;4.314;2022-10-30T10:19:20;12.75;;;6.38;;
17714;SDS011;8977;50.902;4.314;2022-10-30T10:21:52;14.77;;;6.10;;
17714;SDS011;8977;50.902;4.314;2022-10-30T10:24:24;12.77;;;6.28;;
17714;SDS011;8977;50.902;4.314;2022-10-30T10:26:55;10.15;;;5.97;;
17714;SDS011;8977;50.902;4.314;2022-10-30T10:29:32;11.70;;;5.65;;
17714;SDS011;8977;50.902;4.314;2022-10-30T10:35:05;8.93;;;5.85;;
17714;SDS011;8977;50.902;4.314;2022-10-30T10:37:50;13.38;;;6.10;;
17714;SDS011;8977;50.902;4.314;2022-10-30T10:40:27;10.57;;;5.78;;
17714;SDS011;8977;50.902;4.314;2022-10-30T10:43:09;14.88;;;7.65;;
17714;SDS011;8977;50.902;4.314;2022-10-30T10:45:46;14.20;;;6.50;;
17714;SDS011;8977;50.902;4.314;2022-10-30T10:48:30;12.77;;;5.75;;
17714;SDS011;8977;50.902;4.314;2022-10-30T10:51:26;10.45;;;5.30;;
17714;SDS011;8977;50.902;4.314;2022-10-30T10:53:57;12.38;;;5.57;;
17714;SDS011;8977;50.902;4.314;2022-10-30T10:56:26;11.20;;;5.35;;
17714;SDS011;8977;50.902;4.314;2022-10-30T10:58:57;13.88;;;5.97;;
17714;SDS011;8977;50.902;4.314;2022-10-30T11:01:30;10.57;;;4.95;;
17714;SDS011;8977;50.902;4.314;2022-10-30T11:04:02;12.45;;;5.47;;
17714;SDS011;8977;50.902;4.314;2022-10-30T11:06:32;12.93;;;5.38;;
17714;SDS011;8977;50.902;4.314;2022-10-30T11:09:11;10.05;;;5.53;;
17714;SDS011;8977;50.902;4.314;2022-10-30T11:11:40;10.65;;;4.88;;
17714;SDS011;8977;50.902;4.314;2022-10-30T11:14:11;7.32;;;4.32;;
17714;SDS011;8977;50.902;4.314;2022-10-30T11:16:45;12.52;;;5.22;;
17714;SDS011;8977;50.902;4.314;2022-10-30T11:19:19;8.77;;;5.25;;
17714;SDS011;8977;50.902;4.314;2022-10-30T11:21:48;12.68;;;5.28;;
17714;SDS011;8977;50.902;4.314;2022-10-30T11:24:25;10.73;;;4.97;;
17714;SDS011;8977;50.902;4.314;2022-10-30T11:26:54;10.65;;;4.45;;
17714;SDS011;8977;50.902;4.314;2022-10-30T11:29:23;7.55;;;5.05;;
17714;SDS011;8977;50.902;4.314;2022-10-30T11:31:58;12.10;;;5.18;;
17714;SDS011;8977;50.902;4.314;2022-10-30T11:34:30;12.65;;;5.40;;
17714;SDS011;8977;50.902;4.314;2022-10-30T11:37:00;8.40;;;4.93;;
17714;SDS011;8977;50.902;4.314;2022-10-30T11:39:30;10.95;;;5.35;;
17714;SDS011;8977;50.902;4.314;2022-10-30T11:42:02;11.73;;;6.05;;
17714;SDS011;8977;50.902;4.314;2022-10-30T11:44:32;10.50;;;5.75;;
17714;SDS011;8977;50.902;4.314;2022-10-30T11:47:01;9.93;;;5.63;;
17714;SDS011;8977;50.902;4.314;2022-10-30T11:49:31;13.55;;;5.80;;
17714;SDS011;8977;50.902;4.314;2022-10-30T11:52:03;8.63;;;4.90;;
17714;SDS011;8977;50.902;4.314;2022-10-30T11:54:33;8.68;;;5.07;;
17714;SDS011;8977;50.902;4.314;2022-10-30T11:57:04;11.93;;;4.53;;
17714;SDS011;8977;50.902;4.314;2022-10-30T11:59:43;8.93;;;5.03;;
17714;SDS011;8977;50.902;4.314;2022-10-30T12:02:19;13.32;;;5.20;;
17714;SDS011;8977;50.902;4.314;2022-10-30T12:04:48;8.75;;;4.70;;
17714;SDS011;8977;50.902;4.314;2022-10-30T12:07:19;11.05;;;5.10;;
17714;SDS011;8977;50.902;4.314;2022-10-30T12:09:51;11.60;;;4.65;;
17714;SDS011;8977;50.902;4.314;2022-10-30T12:12:20;12.38;;;4.93;;
17714;SDS011;8977;50.902;4.314;2022-10-30T12:14:49;11.10;;;5.38;;
17714;SDS011;8977;50.902;4.314;2022-10-30T12:17:16;11.77;;;5.30;;
17714;SDS011;8977;50.902;4.314;2022-10-30T12:19:45;10.57;;;5.28;;
17714;SDS011;8977;50.902;4.314;2022-10-30T12:22:26;11.98;;;5.38;;
17714;SDS011;8977;50.902;4.314;2022-10-30T12:24:56;10.27;;;5.47;;
17714;SDS011;8977;50.902;4.314;2022-10-30T12:27:25;12.07;;;5.97;;
17714;SDS011;8977;50.902;4.314;2022-10-30T12:29:57;11.82;;;5.47;;
17714;SDS011;8977;50.902;4.314;2022-10-30T12:32:31;8.48;;;4.55;;
17714;SDS011;8977;50.902;4.314;2022-10-30T12:35:04;8.70;;;4.82;;
17714;SDS011;8977;50.902;4.314;2022-10-30T12:37:42;8.20;;;5.10;;
17714;SDS011;8977;50.902;4.314;2022-10-30T12:40:10;8.20;;;4.72;;
17714;SDS011;8977;50.902;4.314;2022-10-30T12:42:44;10.77;;;4.85;;
17714;SDS011;8977;50.902;4.314;2022-10-30T12:45:17;8.65;;;4.75;;
17714;SDS011;8977;50.902;4.314;2022-10-30T12:47:48;13.95;;;5.07;;
17714;SDS011;8977;50.902;4.314;2022-10-30T12:50:20;10.38;;;5.20;;
17714;SDS011;8977;50.902;4.314;2022-10-30T12:52:53;10.55;;;5.25;;
17714;SDS011;8977;50.902;4.314;2022-10-30T12:55:25;14.35;;;5.80;;
17714;SDS011;8977;50.902;4.314;2022-10-30T12:57:57;9.63;;;5.05;;
17714;SDS011;8977;50.902;4.314;2022-10-30T13:00:32;12.27;;;4.75;;
17714;SDS011;8977;50.902;4.314;2022-10-30T13:03:11;12.02;;;5.38;;
17714;SDS011;8977;50.902;4.314;2022-10-30T13:05:50;11.25;;;4.93;;
17714;SDS011;8977;50.902;4.314;2022-10-30T13:08:22;9.10;;;4.97;;
17714;SDS011;8977;50.902;4.314;2022-10-30T13:10:57;9.85;;;4.88;;
17714;SDS011;8977;50.902;4.314;2022-10-30T13:13:29;8.00;;;4.88;;
17714;SDS011;8977;50.902;4.314;2022-10-30T13:16:01;11.88;;;5.35;;
17714;SDS011;8977;50.902;4.314;2022-10-30T13:18:31;12.10;;;4.60;;
17714;SDS011;8977;50.902;4.314;2022-10-30T13:21:06;11.05;;;4.65;;
17714;SDS011;8977;50.902;4.314;2022-10-30T13:23:47;8.32;;;4.60;;
17714;SDS011;8977;50.902;4.314;2022-10-30T13:26:22;8.75;;;4.90;;
17714;SDS011;8977;50.902;4.314;2022-10-30T13:28:58;9.65;;;4.90;;
17714;SDS011;8977;50.902;4.314;2022-10-30T13:31:32;10.63;;;5.38;;
17714;SDS011;8977;50.902;4.314;2022-10-30T13:34:05;10.93;;;4.90;;
17714;SDS011;8977;50.902;4.314;2022-10-30T13:36:42;11.27;;;4.78;;
17714;SDS011;8977;50.902;4.314;2022-10-30T13:39:19;7.60;;;4.15;;
17714;SDS011;8977;50.902;4.314;2022-10-30T13:41:59;11.45;;;5.13;;
17714;SDS011;8977;50.902;4.314;2022-10-30T13:44:39;9.05;;;5.10;;
17714;SDS011;8977;50.902;4.314;2022-10-30T13:47:14;8.57;;;4.95;;
17714;SDS011;8977;50.902;4.314;2022-10-30T13:49:54;10.85;;;6.32;;
17714;SDS011;8977;50.902;4.314;2022-10-30T13:52:33;12.35;;;5.55;;
17714;SDS011;8977;50.902;4.314;2022-10-30T13:55:06;11.02;;;5.85;;
17714;SDS011;8977;50.902;4.314;2022-10-30T13:57:42;13.70;;;5.47;;
17714;SDS011;8977;50.902;4.314;2022-10-30T14:00:17;9.85;;;5.53;;
17714;SDS011;8977;50.902;4.314;2022-10-30T14:03:02;11.85;;;5.30;;
17714;SDS011;8977;50.902;4.314;2022-10-30T14:05:41;14.15;;;5.97;;
17714;SDS011;8977;50.902;4.314;2022-10-30T14:08:15;11.32;;;5.28;;
17714;SDS011;8977;50.902;4.314;2022-10-30T14:10:51;11.48;;;6.13;;
17714;SDS011;8977;50.902;4.314;2022-10-30T14:13:22;13.55;;;6.65;;
17714;SDS011;8977;50.902;4.314;2022-10-30T14:15:55;14.70;;;6.35;;
17714;SDS011;8977;50.902;4.314;2022-10-30T14:18:30;12.13;;;6.22;;
17714;SDS011;8977;50.902;4.314;2022-10-30T14:24:09;11.20;;;5.93;;
17714;SDS011;8977;50.902;4.314;2022-10-30T14:26:40;11.52;;;5.68;;
17714;SDS011;8977;50.902;4.314;2022-10-30T14:35:27;12.40;;;6.82;;
17714;SDS011;8977;50.902;4.314;2022-10-30T14:38:14;14.18;;;6.68;;
17714;SDS011;8977;50.902;4.314;2022-10-30T14:40:53;11.50;;;7.25;;
17714;SDS011;8977;50.902;4.314;2022-10-30T14:43:34;11.52;;;6.82;;
17714;SDS011;8977;50.902;4.314;2022-10-30T14:46:09;12.65;;;6.63;;
17714;SDS011;8977;50.902;4.314;2022-10-30T14:48:44;13.38;;;6.88;;
17714;SDS011;8977;50.902;4.314;2022-10-30T14:51:20;11.30;;;6.18;;
17714;SDS011;8977;50.902;4.314;2022-10-30T14:53:55;13.70;;;6.40;;
17714;SDS011;8977;50.902;4.314;2022-10-30T14:56:29;9.75;;;6.75;;
17714;SDS011;8977;50.902;4.314;2022-10-30T14:59:09;14.57;;;7.30;;
17714;SDS011;8977;50.902;4.314;2022-10-30T15:01:49;10.13;;;7.07;;
17714;SDS011;8977;50.902;4.314;2022-10-30T15:04:21;13.57;;;7.85;;
17714;SDS011;8977;50.902;4.314;2022-10-30T15:06:57;15.13;;;8.95;;
17714;SDS011;8977;50.902;4.314;2022-10-30T15:09:34;16.10;;;8.18;;
17714;SDS011;8977;50.902;4.314;2022-10-30T15:12:13;13.18;;;7.55;;
17714;SDS011;8977;50.902;4.314;2022-10-30T15:15:00;15.18;;;8.00;;
17714;SDS011;8977;50.902;4.314;2022-10-30T15:17:30;15.93;;;8.23;;
17714;SDS011;8977;50.902;4.314;2022-10-30T15:20:02;18.73;;;9.20;;
17714;SDS011;8977;50.902;4.314;2022-10-30T15:22:32;14.20;;;7.32;;
17714;SDS011;8977;50.902;4.314;2022-10-30T15:25:00;14.45;;;7.60;;